Time;durP1;ratioP1;P1;durP2;ratioP2;P2;SDS_P1;SDS_P2;PMS_P1;PMS_P2;Temp;Humidity;BMP_temperature;BMP_pressure;BME280_temperature;BME280_humidity;BME280_pressure;Samples;Min_cycle;Max_cycle;Signal;HPM_P1;HPM_P2
2022/09/28 00:00:06;;;;;;;3.60;0.10;;;;;;;3.21;100.00;99332.06;5008089;28;20041;-57
2022/09/28 00:02:33;;;;;;;1.35;0.20;;;;;;;3.22;100.00;99336.28;5011340;28;20117;-56
2022/09/28 00:04:59;;;;;;;0.28;0.00;;;;;;;3.21;100.00;99324.19;5014651;28;20060;-58
2022/09/28 00:07:24;;;;;;;2.50;0.10;;;;;;;3.17;100.00;99334.19;5010183;28;20069;-55
2022/09/28 00:09:49;;;;;;;2.95;0.20;;;;;;;3.13;100.00;99327.66;5007594;28;20539;-57
2022/09/28 00:12:14;;;;;;;0.13;0.00;;;;;;;3.12;100.00;99328.63;5007856;28;20753;-55
2022/09/28 00:14:41;;;;;;;7.35;0.77;;;;;;;3.17;100.00;99338.63;5010175;28;20125;-58
2022/09/28 00:17:07;;;;;;;1.40;0.10;;;;;;;3.20;100.00;99339.09;5006731;28;20038;-53
2022/09/28 00:19:32;;;;;;;0.43;0.00;;;;;;;3.27;100.00;99334.78;5019975;28;20364;-57
2022/09/28 00:21:58;;;;;;;4.20;0.45;;;;;;;3.22;100.00;99329.25;5016427;28;20504;-55
2022/09/28 00:24:23;;;;;;;0.30;0.15;;;;;;;3.19;100.00;99336.66;5011254;28;20029;-56
2022/09/28 00:26:50;;;;;;;2.50;1.02;;;;;;;3.12;100.00;99336.50;5013065;28;20057;-56
2022/09/28 00:29:30;;;;;;;2.90;0.47;;;;;;;3.05;100.00;99336.38;5033017;28;20037;-59
2022/09/28 00:32:00;;;;;;;2.35;0.03;;;;;;;3.00;100.00;99337.88;5018081;28;20030;-59
2022/09/28 00:34:30;;;;;;;3.15;0.10;;;;;;;2.94;100.00;99339.34;5007885;28;20160;-52
2022/09/28 00:36:57;;;;;;;1.75;0.10;;;;;;;2.90;100.00;99334.66;5004766;28;20550;-58
2022/09/28 00:39:22;;;;;;;5.55;0.00;;;;;;;2.85;100.00;99335.16;5014783;28;20025;-58
2022/09/28 00:41:48;;;;;;;1.52;0.32;;;;;;;2.88;100.00;99339.22;5011512;28;20509;-56
2022/09/28 00:44:25;;;;;;;1.35;0.30;;;;;;;2.81;100.00;99342.53;5010976;28;20033;-56
2022/09/28 00:47:23;;;;;;;1.00;0.10;;;;;;;2.75;100.00;99337.13;5010961;28;20117;-59
2022/09/28 00:49:58;;;;;;;0.38;0.10;;;;;;;2.74;100.00;99338.94;5020562;28;20431;-57
2022/09/28 00:52:41;;;;;;;3.67;0.10;;;;;;;2.73;100.00;99341.72;5010983;28;20030;-57
2022/09/28 00:55:11;;;;;;;8.98;0.52;;;;;;;2.72;100.00;99340.91;5010169;28;20073;-55
2022/09/28 00:57:39;;;;;;;0.57;0.57;;;;;;;2.73;100.00;99347.78;5015232;28;20083;-55
2022/09/28 01:00:06;;;;;;;1.23;0.10;;;;;;;2.70;100.00;99337.63;5013256;28;20036;-54
2022/09/28 01:02:31;;;;;;;0.28;0.10;;;;;;;2.66;100.00;99338.97;5008845;28;20053;-54
2022/09/28 01:04:58;;;;;;;3.05;0.10;;;;;;;2.65;100.00;99333.91;5012318;28;20510;-58
2022/09/28 01:07:24;;;;;;;1.95;0.57;;;;;;;2.68;100.00;99333.56;5012169;28;20491;-57
2022/09/28 01:09:50;;;;;;;0.45;0.10;;;;;;;2.62;100.00;99343.72;5014607;28;20081;-54
2022/09/28 01:12:15;;;;;;;2.53;0.25;;;;;;;2.61;100.00;99338.66;5004853;28;20506;-54
2022/09/28 01:14:42;;;;;;;2.15;0.45;;;;;;;2.64;100.00;99335.72;5009108;28;20108;-56
2022/09/28 01:17:30;;;;;;;5.20;0.68;;;;;;;2.64;100.00;99333.09;5006836;28;20034;-58
2022/09/28 01:20:20;;;;;;;2.08;0.10;;;;;;;2.62;100.00;99335.84;5019145;28;20486;-56
2022/09/28 01:22:59;;;;;;;4.28;0.30;;;;;;;2.59;100.00;99335.38;5008277;28;20403;-55
2022/09/28 01:25:53;;;;;;;5.93;0.75;;;;;;;2.56;100.00;99333.94;5010604;28;20054;-58
2022/09/28 01:28:24;;;;;;;1.95;0.20;;;;;;;2.57;100.00;99338.16;5002635;28;20029;-57
2022/09/28 01:30:59;;;;;;;4.53;0.95;;;;;;;2.60;100.00;99339.63;5011073;28;20033;-56
2022/09/28 01:33:31;;;;;;;2.10;0.20;;;;;;;2.62;100.00;99332.44;5009386;28;20034;-57
2022/09/28 01:36:05;;;;;;;0.30;0.30;;;;;;;2.51;100.00;99328.38;5009342;28;20233;-54
2022/09/28 01:38:40;;;;;;;0.95;0.00;;;;;;;2.51;100.00;99332.78;5006650;28;20029;-59
2022/09/28 01:41:07;;;;;;;1.80;0.10;;;;;;;2.53;100.00;99331.66;5014807;28;20402;-54
2022/09/28 01:43:37;;;;;;;0.10;0.10;;;;;;;2.57;100.00;99321.66;5006174;28;20033;-54
2022/09/28 01:46:13;;;;;;;3.83;0.20;;;;;;;2.58;100.00;99324.13;5003951;28;20029;-55
2022/09/28 01:48:46;;;;;;;4.10;0.20;;;;;;;2.56;100.00;99325.25;5010512;28;20079;-57
2022/09/28 01:51:23;;;;;;;3.00;0.20;;;;;;;2.67;100.00;99321.47;5014332;28;20475;-54
2022/09/28 01:53:53;;;;;;;1.00;0.10;;;;;;;2.64;100.00;99324.44;5008913;28;20080;-59
2022/09/28 01:56:39;;;;;;;0.67;0.10;;;;;;;2.61;100.00;99321.16;5008525;28;20058;-55
2022/09/28 01:59:07;;;;;;;2.92;0.10;;;;;;;2.52;100.00;99326.56;5005363;28;20026;-56
2022/09/28 02:01:40;;;;;;;5.50;0.28;;;;;;;2.53;100.00;99321.19;5010592;28;20501;-57
2022/09/28 02:04:19;;;;;;;4.95;0.38;;;;;;;2.49;100.00;99329.53;5008618;28;20030;-56
2022/09/28 02:06:51;;;;;;;2.60;1.08;;;;;;;2.44;100.00;99329.22;5005718;28;20438;-58
2022/09/28 02:09:54;;;;;;;0.75;0.00;;;;;;;2.50;100.00;99325.91;5016070;28;20113;-57
2022/09/28 02:12:28;;;;;;;1.27;0.10;;;;;;;2.48;100.00;99322.63;5008405;28;20041;-57
2022/09/28 02:15:02;;;;;;;1.98;0.10;;;;;;;2.49;100.00;99329.53;5001662;28;20037;-56
2022/09/28 02:17:28;;;;;;;1.80;0.80;;;;;;;2.56;100.00;99323.44;5006089;28;20038;-58
2022/09/28 02:19:54;;;;;;;5.63;1.05;;;;;;;2.57;100.00;99322.47;5018572;28;20030;-56
2022/09/28 02:22:48;;;;;;;1.73;0.55;;;;;;;2.59;100.00;99324.91;5010373;28;20130;-57
2022/09/28 02:25:41;;;;;;;5.18;0.60;;;;;;;2.65;100.00;99324.25;4998863;28;20061;-56
2022/09/28 02:28:10;;;;;;;0.25;0.25;;;;;;;2.59;100.00;99322.31;5005045;28;20034;-57
2022/09/28 02:30:38;;;;;;;5.28;0.30;;;;;;;2.55;100.00;99323.63;5007984;28;20026;-55
2022/09/28 02:33:15;;;;;;;1.55;0.10;;;;;;;2.60;100.00;99322.13;5009263;28;20053;-58
2022/09/28 02:35:41;;;;;;;5.75;0.10;;;;;;;2.56;100.00;99322.66;5012622;28;20065;-57
2022/09/28 02:38:09;;;;;;;3.00;0.35;;;;;;;2.59;100.00;99324.91;5015189;28;20063;-59
2022/09/28 02:40:36;;;;;;;3.70;0.20;;;;;;;2.50;100.00;99320.69;5012052;28;20052;-55
2022/09/28 02:43:26;;;;;;;0.93;0.15;;;;;;;2.57;100.00;99321.66;5013161;28;20030;-59
2022/09/28 02:45:54;;;;;;;0.25;0.10;;;;;;;2.56;100.00;99320.84;5010485;28;20494;-56
2022/09/28 02:48:27;;;;;;;1.40;0.08;;;;;;;2.56;100.00;99322.66;5014772;28;20044;-57
2022/09/28 02:51:19;;;;;;;8.30;0.77;;;;;;;2.58;100.00;99321.50;5009119;28;20034;-59
2022/09/28 02:54:03;;;;;;;;;;;;;;;2.61;100.00;99325.56;5014302;28;20041;-56
2022/09/28 02:56:31;;;;;;;2.60;0.15;;;;;;;2.49;100.00;99325.09;5019415;28;20378;-56
2022/09/28 02:59:24;;;;;;;20.08;0.55;;;;;;;2.39;100.00;99330.50;5010305;28;20137;-57
2022/09/28 03:02:01;;;;;;;1.35;0.05;;;;;;;2.38;100.00;99326.28;5013122;28;20471;-57
2022/09/28 03:04:44;;;;;;;2.42;0.20;;;;;;;2.45;100.00;99328.22;5013525;28;20037;-55
2022/09/28 03:07:25;;;;;;;2.38;0.20;;;;;;;2.50;100.00;99325.91;5014924;28;20022;-58
2022/09/28 03:10:07;;;;;;;3.53;0.30;;;;;;;2.46;100.00;99328.06;5014348;28;20042;-59
2022/09/28 03:12:34;;;;;;;1.45;0.10;;;;;;;2.46;100.00;99329.88;5007146;28;20037;-59
2022/09/28 03:15:24;;;;;;;3.05;0.40;;;;;;;2.54;100.00;99329.84;5006186;28;20026;-57
2022/09/28 03:17:49;;;;;;;0.20;0.00;;;;;;;2.47;100.00;99326.25;5005378;28;20089;-59
2022/09/28 03:20:15;;;;;;;2.22;0.20;;;;;;;2.36;100.00;99322.19;5010341;28;20470;-58
2022/09/28 03:22:40;;;;;;;1.90;0.15;;;;;;;2.29;100.00;99327.25;5010682;28;20060;-58
2022/09/28 03:25:06;;;;;;;0.52;0.40;;;;;;;2.31;100.00;99330.53;5006623;28;20491;-58
2022/09/28 03:27:32;;;;;;;3.03;0.22;;;;;;;2.34;100.00;99327.56;5016164;28;20140;-57
2022/09/28 03:29:57;;;;;;;1.20;0.28;;;;;;;2.23;100.00;99324.50;5008095;28;20034;-59
2022/09/28 03:32:23;;;;;;;0.22;0.20;;;;;;;2.11;100.00;99326.63;5010728;28;20025;-58
2022/09/28 03:34:48;;;;;;;2.65;0.10;;;;;;;2.08;100.00;99334.81;5010401;28;20590;-58
2022/09/28 03:37:14;;;;;;;2.83;1.17;;;;;;;1.96;100.00;99321.22;5005894;28;20034;-58
2022/09/28 03:39:39;;;;;;;2.78;0.68;;;;;;;1.84;100.00;99325.16;4998496;28;20069;-59
2022/09/28 03:42:04;;;;;;;0.50;0.20;;;;;;;1.77;100.00;99327.59;5011144;28;20471;-58
2022/09/28 03:44:30;;;;;;;2.80;1.30;;;;;;;1.75;100.00;99329.56;5009368;28;20033;-58
2022/09/28 03:46:55;;;;;;;1.55;0.10;;;;;;;1.71;100.00;99321.22;5012814;28;20057;-59
2022/09/28 03:49:20;;;;;;;0.60;0.10;;;;;;;1.76;100.00;99328.59;5004660;28;20110;-56
2022/09/28 03:51:46;;;;;;;2.25;0.10;;;;;;;1.90;100.00;99327.94;5012554;28;20061;-53
2022/09/28 03:54:12;;;;;;;2.17;0.22;;;;;;;1.89;100.00;99326.31;5006964;28;20037;-57
2022/09/28 03:56:37;;;;;;;1.85;0.88;;;;;;;1.91;100.00;99329.59;5011239;28;20534;-57
2022/09/28 03:59:03;;;;;;;15.52;0.68;;;;;;;1.84;100.00;99323.38;5010698;28;20041;-59
2022/09/28 04:01:29;;;;;;;4.60;0.20;;;;;;;1.82;100.00;99321.91;5007433;28;20137;-57
2022/09/28 04:03:54;;;;;;;1.23;0.32;;;;;;;1.80;100.00;99322.03;5010668;28;20132;-58
2022/09/28 04:06:20;;;;;;;0.10;0.10;;;;;;;1.79;100.00;99320.41;5011483;28;20372;-60
2022/09/28 04:08:46;;;;;;;5.55;0.38;;;;;;;1.70;100.00;99321.38;5007347;28;20084;-55
2022/09/28 04:11:11;;;;;;;3.92;0.10;;;;;;;1.60;100.00;99323.31;5004082;28;20503;-56
2022/09/28 04:13:37;;;;;;;1.38;0.22;;;;;;;1.59;100.00;99321.72;5011850;28;20439;-59
2022/09/28 04:16:04;;;;;;;3.72;0.25;;;;;;;1.53;100.00;99326.59;5005697;28;20026;-59
2022/09/28 04:18:31;;;;;;;3.83;0.13;;;;;;;1.59;100.00;99337.38;5011375;28;20022;-58
2022/09/28 04:21:09;;;;;;;2.30;0.10;;;;;;;1.61;100.00;99328.41;5010906;28;20104;-60
2022/09/28 04:23:36;;;;;;;4.35;0.20;;;;;;;1.61;100.00;99336.25;5011573;28;20427;-58
2022/09/28 04:26:03;;;;;;;2.22;0.10;;;;;;;1.62;100.00;99324.00;5011651;28;20045;-59
2022/09/28 04:31:36;;;;;;;3.43;0.30;;;;;;;1.88;100.00;99329.88;4994542;28;20570;-59
2022/09/28 04:34:02;;;;;;;0.20;0.10;;;;;;;1.86;100.00;99329.25;5007272;28;20037;-60
2022/09/28 04:36:27;;;;;;;3.10;0.50;;;;;;;1.99;100.00;99334.00;5010957;28;20482;-59
2022/09/28 04:38:53;;;;;;;0.80;0.30;;;;;;;2.00;100.00;99338.22;5009150;28;20031;-61
2022/09/28 04:41:21;;;;;;;2.35;0.43;;;;;;;2.12;100.00;99342.16;5009648;28;20026;-61
2022/09/28 04:43:46;;;;;;;4.18;0.28;;;;;;;2.35;100.00;99334.47;5011357;28;20041;-59
2022/09/28 04:46:12;;;;;;;1.77;0.28;;;;;;;2.58;100.00;99344.22;5008479;28;20483;-58
2022/09/28 04:48:37;;;;;;;2.90;0.10;;;;;;;2.55;100.00;99347.16;5009575;28;20422;-61
2022/09/28 04:51:02;;;;;;;0.70;0.47;;;;;;;2.45;100.00;99342.09;5006784;28;20088;-60
2022/09/28 04:53:28;;;;;;;1.45;0.30;;;;;;;2.75;100.00;99345.81;5005461;28;20954;-60
2022/09/28 04:55:56;;;;;;;0.65;0.00;;;;;;;2.87;100.00;99345.47;5013481;28;20035;-61
2022/09/28 04:58:22;;;;;;;0.90;0.15;;;;;;;2.77;100.00;99349.06;5006914;28;20098;-59
2022/09/28 05:00:50;;;;;;;1.08;0.90;;;;;;;2.78;100.00;99342.03;5005958;28;20092;-60
2022/09/28 05:03:16;;;;;;;1.88;0.47;;;;;;;2.72;100.00;99340.91;5011396;28;20034;-60
2022/09/28 05:05:46;;;;;;;3.30;0.73;;;;;;;2.73;100.00;99341.72;5008380;28;20038;-58
2022/09/28 05:08:11;;;;;;;4.38;0.15;;;;;;;2.82;100.00;99340.72;5016094;28;20022;-59
2022/09/28 05:10:39;;;;;;;6.20;0.63;;;;;;;2.90;100.00;99340.69;5008494;28;20038;-61
2022/09/28 05:13:08;;;;;;;6.47;1.10;;;;;;;3.07;100.00;99338.81;5010602;28;20060;-60
2022/09/28 05:15:38;;;;;;;0.10;0.10;;;;;;;2.88;100.00;99334.00;5009419;28;20034;-58
2022/09/28 05:18:04;;;;;;;0.88;0.77;;;;;;;2.98;100.00;99339.84;5005362;28;20029;-59
2022/09/28 05:20:30;;;;;;;4.40;0.10;;;;;;;3.00;100.00;99337.88;5009759;28;20510;-61
2022/09/28 05:22:55;;;;;;;2.20;0.13;;;;;;;3.03;100.00;99340.97;5014771;28;20449;-60
2022/09/28 05:25:21;;;;;;;0.82;0.15;;;;;;;3.03;100.00;99342.78;5014102;28;20049;-60
2022/09/28 05:27:46;;;;;;;0.82;0.57;;;;;;;2.93;100.00;99336.91;5011954;28;20037;-60
2022/09/28 05:30:12;;;;;;;5.75;1.10;;;;;;;2.99;100.00;99337.03;5007365;28;20506;-60
2022/09/28 05:32:40;;;;;;;1.55;0.55;;;;;;;3.17;100.00;99342.03;5010666;28;20092;-60
2022/09/28 05:35:06;;;;;;;2.50;0.10;;;;;;;3.15;100.00;99335.34;5011917;28;20034;-60
2022/09/28 05:37:33;;;;;;;0.20;0.10;;;;;;;3.20;100.00;99344.34;5004391;28;20112;-59
2022/09/28 05:39:58;;;;;;;0.40;0.00;;;;;;;3.42;100.00;99349.78;5007871;28;20044;-61
2022/09/28 05:42:24;;;;;;;1.05;0.15;;;;;;;3.38;100.00;99354.56;5010685;28;20387;-60
2022/09/28 05:44:49;;;;;;;5.63;0.20;;;;;;;3.32;100.00;99362.28;5015238;28;20037;-60
2022/09/28 05:47:14;;;;;;;4.43;0.70;;;;;;;3.22;100.00;99352.00;4999317;28;20045;-60
2022/09/28 05:49:41;;;;;;;1.85;0.10;;;;;;;3.26;100.00;99356.75;5008108;28;20080;-60
2022/09/28 05:52:06;;;;;;;1.60;0.68;;;;;;;3.31;100.00;99358.84;5012810;28;20034;-60
2022/09/28 05:54:32;;;;;;;3.50;0.40;;;;;;;3.45;100.00;99357.31;5005557;28;20426;-60
2022/09/28 05:56:57;;;;;;;3.20;0.28;;;;;;;3.63;100.00;99357.84;5000562;28;20026;-55
2022/09/28 05:59:22;;;;;;;0.80;0.20;;;;;;;3.56;100.00;99364.75;5002740;28;20026;-60
2022/09/28 06:01:48;;;;;;;1.65;1.20;;;;;;;3.41;100.00;99356.03;4995578;28;20054;-60
2022/09/28 06:04:14;;;;;;;2.63;0.25;;;;;;;3.56;100.00;99354.28;5003414;28;20038;-60
2022/09/28 06:06:40;;;;;;;0.82;0.10;;;;;;;3.52;100.00;99360.88;4995950;28;20117;-61
2022/09/28 06:09:05;;;;;;;0.45;0.10;;;;;;;3.51;100.00;99359.22;4998630;28;20750;-60
2022/09/28 06:11:31;;;;;;;5.78;1.42;;;;;;;3.50;100.00;99363.66;5002842;28;20065;-57
2022/09/28 06:13:56;;;;;;;0.50;0.50;;;;;;;3.47;100.00;99361.38;5000402;28;20105;-60
2022/09/28 06:16:22;;;;;;;4.95;0.38;;;;;;;3.56;100.00;99362.16;5002310;28;20024;-60
2022/09/28 06:18:48;;;;;;;1.52;0.50;;;;;;;3.56;100.00;99372.63;5002541;28;20065;-61
2022/09/28 06:21:14;;;;;;;10.98;0.85;;;;;;;3.47;100.00;99365.81;5008848;28;20105;-61
2022/09/28 06:23:39;;;;;;;1.55;0.10;;;;;;;3.42;100.00;99368.13;5008453;28;20475;-60
2022/09/28 06:26:04;;;;;;;0.60;0.30;;;;;;;3.53;100.00;99367.75;5005664;28;20129;-61
2022/09/28 06:28:30;;;;;;;1.73;0.20;;;;;;;3.43;100.00;99364.50;5007458;28;20395;-61
2022/09/28 06:30:59;;;;;;;6.70;0.82;;;;;;;3.38;100.00;99366.84;5001294;28;20348;-60
2022/09/28 06:33:25;;;;;;;0.77;0.20;;;;;;;3.35;100.00;99372.41;5002332;28;20100;-61
2022/09/28 06:35:50;;;;;;;2.10;1.20;;;;;;;3.32;100.00;99375.38;5004548;28;20116;-60
2022/09/28 06:38:16;;;;;;;1.90;0.20;;;;;;;3.32;100.00;99373.59;5004288;28;20018;-59
2022/09/28 06:40:41;;;;;;;2.47;0.30;;;;;;;3.24;100.00;99371.00;5004763;28;20144;-60
2022/09/28 06:43:14;;;;;;;2.25;0.50;;;;;;;3.25;100.00;99376.09;5008764;28;20131;-60
2022/09/28 06:45:40;;;;;;;2.10;0.20;;;;;;;3.33;100.00;99379.63;5004514;28;20030;-61
2022/09/28 06:48:06;;;;;;;0.52;0.25;;;;;;;3.41;100.00;99375.19;5004825;28;20037;-58
2022/09/28 06:50:41;;;;;;;0.85;0.43;;;;;;;3.41;100.00;99379.63;5005374;28;20038;-60
2022/09/28 06:53:09;;;;;;;2.38;0.22;;;;;;;3.41;100.00;99382.25;5003113;28;20029;-59
2022/09/28 06:55:38;;;;;;;1.65;0.75;;;;;;;3.46;100.00;99388.59;5009623;28;20029;-57
2022/09/28 06:58:06;;;;;;;2.88;0.28;;;;;;;3.60;100.00;99391.47;5002302;28;20033;-59
2022/09/28 07:00:34;;;;;;;5.95;0.30;;;;;;;3.51;100.00;99390.66;5002844;28;20022;-60
2022/09/28 07:03:05;;;;;;;0.65;0.32;;;;;;;3.44;100.00;99395.00;5006024;28;20133;-61
2022/09/28 07:05:34;;;;;;;3.45;0.50;;;;;;;3.42;100.00;99391.72;5005082;28;20033;-61
2022/09/28 07:08:00;;;;;;;2.60;0.40;;;;;;;3.53;100.00;99391.31;5002600;28;20044;-60
2022/09/28 07:10:28;;;;;;;0.52;0.30;;;;;;;3.64;100.00;99393.56;5004878;28;20089;-59
2022/09/28 07:12:55;;;;;;;2.60;0.82;;;;;;;3.55;100.00;99391.97;5005088;28;20025;-61
2022/09/28 07:15:21;;;;;;;1.83;0.80;;;;;;;3.59;100.00;99385.41;5009110;28;20347;-60
2022/09/28 07:17:47;;;;;;;2.45;0.77;;;;;;;3.75;100.00;99388.94;5008999;28;20284;-61
2022/09/28 07:20:13;;;;;;;1.25;0.17;;;;;;;3.97;100.00;99392.53;5002354;28;20029;-61
2022/09/28 07:22:38;;;;;;;1.05;0.20;;;;;;;4.04;100.00;99381.19;5006003;28;20030;-60
2022/09/28 07:25:08;;;;;;;1.95;0.25;;;;;;;4.12;100.00;99391.59;5007641;28;20077;-60
2022/09/28 07:27:36;;;;;;;0.30;0.30;;;;;;;4.47;100.00;99389.34;5008261;28;20514;-60
2022/09/28 07:30:04;;;;;;;7.28;1.50;;;;;;;4.80;100.00;99394.28;5006057;28;20085;-62
2022/09/28 07:32:30;;;;;;;1.30;0.50;;;;;;;5.05;100.00;99386.94;4998479;28;20034;-62
2022/09/28 07:34:56;;;;;;;5.45;1.52;;;;;;;5.21;100.00;99391.19;5001527;28;20022;-60
2022/09/28 07:37:23;;;;;;;1.85;0.52;;;;;;;5.22;100.00;99383.16;5010624;28;20045;-61
2022/09/28 07:42:33;;;;;;;10.27;0.60;;;;;;;5.33;100.00;99384.47;5005462;28;20080;-60
2022/09/28 07:44:58;;;;;;;2.88;0.95;;;;;;;5.37;100.00;99393.66;5011088;28;20045;-60
2022/09/28 07:47:25;;;;;;;6.18;0.50;;;;;;;5.53;100.00;99390.00;5011280;28;20030;-60
2022/09/28 07:49:57;;;;;;;1.80;0.22;;;;;;;5.88;100.00;99387.50;5011367;28;20064;-57
2022/09/28 07:52:25;;;;;;;2.88;2.15;;;;;;;6.23;100.00;99404.28;5011079;28;20483;-60
2022/09/28 07:54:51;;;;;;;1.98;0.63;;;;;;;6.45;100.00;99393.72;5011248;28;20036;-61
2022/09/28 07:57:18;;;;;;;2.42;0.05;;;;;;;6.70;100.00;99394.94;5007702;28;20025;-58
2022/09/28 07:59:44;;;;;;;3.20;1.17;;;;;;;6.81;100.00;99406.75;5011229;28;20037;-59
2022/09/28 08:02:10;;;;;;;2.90;1.50;;;;;;;6.92;100.00;99408.88;5006235;28;20113;-59
2022/09/28 08:04:36;;;;;;;6.40;0.88;;;;;;;6.81;100.00;99401.47;5013408;28;20014;-59
2022/09/28 08:07:01;;;;;;;12.65;2.08;;;;;;;6.84;100.00;99409.03;5009585;28;20033;-58
2022/09/28 08:09:27;;;;;;;0.55;0.35;;;;;;;6.98;100.00;99408.09;5009412;28;20033;-59
2022/09/28 08:11:53;;;;;;;1.77;0.60;;;;;;;6.95;100.00;99410.31;5009923;28;20083;-54
2022/09/28 08:14:19;;;;;;;4.03;1.05;;;;;;;6.98;100.00;99413.34;5009981;28;20463;-57
2022/09/28 08:16:44;;;;;;;7.95;0.90;;;;;;;7.16;100.00;99412.84;5011135;28;20037;-56
2022/09/28 08:19:10;;;;;;;5.78;1.33;;;;;;;7.34;100.00;99416.78;5011518;28;20050;-52
2022/09/28 08:21:44;;;;;;;4.38;0.75;;;;;;;7.54;100.00;99415.06;5006853;28;20490;-53
2022/09/28 08:24:10;;;;;;;1.13;0.75;;;;;;;7.64;100.00;99418.16;5010662;28;20404;-56
2022/09/28 08:26:35;;;;;;;4.95;1.02;;;;;;;7.80;100.00;99414.34;5010198;28;20053;-53
2022/09/28 08:29:01;;;;;;;3.78;0.85;;;;;;;8.38;100.00;99410.34;5006735;28;20042;-49
2022/09/28 08:31:27;;;;;;;8.75;0.50;;;;;;;8.85;100.00;99417.25;5006987;28;20312;-52
2022/09/28 08:33:53;;;;;;;2.60;0.28;;;;;;;8.66;100.00;99407.53;5012234;28;20112;-55
2022/09/28 08:36:19;;;;;;;2.63;0.65;;;;;;;8.45;100.00;99411.22;5008688;28;20030;-52
2022/09/28 08:38:45;;;;;;;4.65;0.30;;;;;;;8.41;100.00;99415.25;5006903;28;20061;-52
2022/09/28 08:41:32;;;;;;;9.55;0.68;;;;;;;8.44;100.00;99415.69;5009742;28;20068;-54
2022/09/28 08:44:22;;;;;;;1.40;0.60;;;;;;;8.51;100.00;99403.28;5009964;28;20038;-54
2022/09/28 08:46:53;;;;;;;3.10;1.38;;;;;;;8.60;100.00;99403.91;5009035;28;20057;-50
2022/09/28 08:49:31;;;;;;;1.00;0.10;;;;;;;8.68;100.00;99401.03;5010410;28;20104;-49
2022/09/28 08:52:04;;;;;;;4.90;0.45;;;;;;;8.63;100.00;99410.59;5009766;28;20055;-51
2022/09/28 08:54:50;;;;;;;3.78;0.90;;;;;;;8.69;100.00;99400.00;5009677;28;20061;-51
2022/09/28 08:57:31;;;;;;;1.98;1.23;;;;;;;8.80;100.00;99409.13;5010046;28;20022;-51
2022/09/28 08:59:59;;;;;;;0.13;0.08;;;;;;;8.87;100.00;99407.31;5009185;28;20033;-53
2022/09/28 09:02:32;;;;;;;3.28;1.05;;;;;;;8.86;100.00;99403.06;5003953;28;20061;-51
2022/09/28 09:04:59;;;;;;;4.10;0.28;;;;;;;8.74;100.00;99399.41;5005508;28;20026;-56
2022/09/28 09:07:38;;;;;;;1.90;0.68;;;;;;;8.78;100.00;99402.44;5003044;28;20034;-51
2022/09/28 09:10:12;;;;;;;1.98;1.10;;;;;;;8.93;100.00;99393.28;5005830;28;20041;-57
2022/09/28 09:12:57;;;;;;;0.40;0.40;;;;;;;9.16;100.00;99398.13;5010612;28;20030;-50
2022/09/28 09:15:22;;;;;;;0.70;0.17;;;;;;;9.36;100.00;99403.31;5008973;28;20034;-55
2022/09/28 09:18:15;;;;;;;1.40;0.52;;;;;;;9.30;100.00;99390.13;5009858;28;20034;-58
2022/09/28 09:20:50;;;;;;;4.50;1.30;;;;;;;9.34;100.00;99386.84;5000155;28;20053;-50
2022/09/28 09:23:38;;;;;;;4.28;0.40;;;;;;;9.35;100.00;99388.47;5002042;28;20113;-53
2022/09/28 09:26:17;;;;;;;1.67;0.25;;;;;;;9.51;100.00;99394.31;5009219;28;20041;-53
2022/09/28 09:29:18;;;;;;;1.05;0.95;;;;;;;9.81;100.00;99408.63;5009984;28;20077;-51
2022/09/28 09:32:08;;;;;;;1.98;0.35;;;;;;;9.87;100.00;99393.72;4986435;28;20046;-52
2022/09/28 09:34:55;;;;;;;2.95;0.30;;;;;;;9.87;100.00;99377.03;5010238;28;20037;-58
2022/09/28 09:37:33;;;;;;;1.38;0.45;;;;;;;10.04;100.00;99372.81;5005424;28;20068;-55
2022/09/28 09:40:23;;;;;;;2.65;0.55;;;;;;;10.21;100.00;99375.78;5009830;28;20041;-54
2022/09/28 09:43:16;;;;;;;2.85;0.65;;;;;;;10.48;100.00;99360.50;5007040;28;20029;-54
2022/09/28 09:46:00;;;;;;;2.75;0.50;;;;;;;10.64;100.00;99352.00;5009190;28;20049;-56
2022/09/28 09:48:33;;;;;;;4.82;1.35;;;;;;;10.80;100.00;99349.81;5007533;28;20083;-57
2022/09/28 09:51:05;;;;;;;3.30;0.20;;;;;;;10.84;100.00;99350.97;5006941;28;20487;-52
2022/09/28 09:53:39;;;;;;;;;;;;;;;10.87;100.00;99343.41;5009597;28;20428;-52
2022/09/28 09:56:19;;;;;;;3.00;0.15;;;;;;;11.09;100.00;99342.94;5008941;28;19917;-53
2022/09/28 09:58:52;;;;;;;0.45;0.13;;;;;;;11.22;100.00;99350.75;5005516;28;20492;-55
2022/09/28 10:01:23;;;;;;;2.10;0.50;;;;;;;11.24;100.00;99338.06;5004081;28;20438;-52
2022/09/28 10:03:50;;;;;;;0.98;0.40;;;;;;;11.40;100.00;99325.22;4998559;28;20038;-52
2022/09/28 10:06:26;;;;;;;4.45;0.85;;;;;;;11.57;100.00;99324.38;5006363;28;20022;-53
2022/09/28 10:09:02;;;;;;;1.50;0.20;;;;;;;11.69;100.00;99339.53;5006260;28;20038;-54
2022/09/28 10:11:35;;;;;;;4.78;1.60;;;;;;;11.87;100.00;99350.13;5006545;28;20117;-53
2022/09/28 10:14:02;;;;;;;2.28;1.25;;;;;;;11.83;100.00;99348.94;5003007;28;20033;-50
2022/09/28 10:16:30;;;;;;;0.20;0.20;;;;;;;11.70;100.00;99333.19;5007246;28;20038;-53
2022/09/28 10:18:55;;;;;;;0.20;0.20;;;;;;;11.74;100.00;99332.50;5006239;28;20026;-52
2022/09/28 10:21:22;;;;;;;1.75;0.28;;;;;;;11.99;100.00;99328.91;5006396;28;20069;-55
2022/09/28 10:23:56;;;;;;;0.77;0.43;;;;;;;12.04;100.00;99330.88;5009467;28;20117;-52
2022/09/28 10:26:27;;;;;;;0.22;0.00;;;;;;;12.09;100.00;99341.63;5008545;28;20046;-53
2022/09/28 10:29:02;;;;;;;1.88;0.10;;;;;;;11.94;100.00;99318.16;5008935;28;20045;-51
2022/09/28 10:31:47;;;;;;;0.32;0.00;;;;;;;12.18;100.00;99316.34;5009529;28;20434;-57
2022/09/28 10:34:15;;;;;;;0.17;0.00;;;;;;;12.66;100.00;99321.44;5009202;28;20446;-54
2022/09/28 10:36:47;;;;;;;1.60;0.13;;;;;;;12.95;100.00;99318.03;5007690;28;20038;-52
2022/09/28 10:39:27;;;;;;;0.50;0.00;;;;;;;13.20;100.00;99315.88;5007431;28;20030;-55
2022/09/28 10:41:53;;;;;;;2.40;0.10;;;;;;;13.18;100.00;99312.66;5003735;28;20030;-56
2022/09/28 10:44:19;;;;;;;1.00;0.00;;;;;;;12.79;100.00;99312.38;5006396;28;20041;-57
2022/09/28 10:46:55;;;;;;;0.93;0.25;;;;;;;12.30;100.00;99322.47;5002294;28;20084;-56
2022/09/28 10:49:22;;;;;;;0.30;0.17;;;;;;;12.00;100.00;99312.75;5002806;28;20042;-57
2022/09/28 10:51:53;;;;;;;1.88;0.05;;;;;;;11.68;100.00;99319.34;5002018;28;20030;-54
2022/09/28 10:54:24;;;;;;;2.08;0.65;;;;;;;11.64;100.00;99326.94;5004338;28;20482;-55
2022/09/28 10:56:51;;;;;;;1.20;0.10;;;;;;;12.12;100.00;99317.25;5010310;28;20053;-57
2022/09/28 10:59:29;;;;;;;0.93;0.28;;;;;;;12.54;100.00;99309.97;5010833;28;20894;-58
2022/09/28 11:01:58;;;;;;;0.52;0.00;;;;;;;12.43;100.00;99311.59;5006967;28;20077;-54
2022/09/28 11:04:27;;;;;;;0.05;0.00;;;;;;;11.93;100.00;99311.22;5006853;28;20037;-51
2022/09/28 11:06:55;;;;;;;0.28;0.00;;;;;;;11.61;100.00;99318.59;5007742;28;20131;-55
2022/09/28 11:09:32;;;;;;;0.95;0.52;;;;;;;11.76;100.00;99316.34;5006221;28;20029;-53
2022/09/28 11:11:59;;;;;;;0.00;0.00;;;;;;;12.32;100.00;99320.41;5005831;28;20063;-54
2022/09/28 11:14:42;;;;;;;0.73;0.03;;;;;;;13.03;100.00;99315.00;5005306;28;20037;-51
2022/09/28 11:17:31;;;;;;;0.00;0.00;;;;;;;12.95;100.00;99321.50;5004485;28;20041;-56
2022/09/28 11:20:20;;;;;;;1.98;0.00;;;;;;;12.56;100.00;99310.56;5006518;28;20095;-52
2022/09/28 11:22:47;;;;;;;0.13;0.05;;;;;;;12.38;100.00;99316.81;5005068;28;20475;-54
2022/09/28 11:25:15;;;;;;;0.85;0.40;;;;;;;12.30;100.00;99321.66;5000860;28;20050;-55
2022/09/28 11:27:41;;;;;;;0.00;0.00;;;;;;;12.32;100.00;99309.78;5009853;28;20030;-53
2022/09/28 11:30:28;;;;;;;2.08;0.20;;;;;;;12.40;100.00;99317.41;5007982;28;20022;-57
2022/09/28 11:32:59;;;;;;;4.38;0.15;;;;;;;12.29;100.00;99322.69;5008387;28;20022;-57
2022/09/28 11:35:50;;;;;;;2.67;0.45;;;;;;;12.20;100.00;99317.72;5012143;28;20032;-54
2022/09/28 11:38:53;;;;;;;0.15;0.00;;;;;;;12.25;100.00;99319.69;5011295;28;20029;-51
2022/09/28 11:41:42;;;;;;;2.00;0.00;;;;;;;12.42;100.00;99314.50;5010168;28;21001;-55
2022/09/28 11:44:32;;;;;;;2.20;0.00;;;;;;;12.45;100.00;99314.06;5011708;28;20042;-59
2022/09/28 11:47:36;;;;;;;0.75;0.10;;;;;;;12.38;100.00;99319.47;5010177;28;20466;-56
2022/09/28 11:50:24;;;;;;;2.35;0.70;;;;;;;12.35;100.00;99319.94;5010939;28;20030;-58
2022/09/28 11:52:56;;;;;;;0.10;0.00;;;;;;;12.28;100.00;99318.44;5009176;28;20034;-59
2022/09/28 11:55:31;;;;;;;0.00;0.00;;;;;;;12.31;100.00;99315.31;5011349;28;20054;-51